Time;durP1;ratioP1;P1;durP2;ratioP2;P2;SDS_P1;SDS_P2;PMS_P1;PMS_P2;Temp;Humidity;BMP_temperature;BMP_pressure;BME280_temperature;BME280_humidity;BME280_pressure;Samples;Min_cycle;Max_cycle;Signal;HPM_P1;HPM_P2
2021/12/06 00:02:19;;;;;;;70.35;33.53;;;2.40;99.90;;;;;;5006400;28;20029;-56
2021/12/06 00:04:45;;;;;;;72.03;33.60;;;2.30;99.90;;;;;;5009612;28;20513;-57
2021/12/06 00:07:18;;;;;;;68.75;33.38;;;2.40;99.90;;;;;;5007117;28;20036;-56
2021/12/06 00:09:44;;;;;;;70.18;31.13;;;2.40;99.90;;;;;;5010085;28;20488;-57
2021/12/06 00:12:11;;;;;;;70.82;33.35;;;2.40;99.90;;;;;;5008034;28;20036;-56
2021/12/06 00:14:40;;;;;;;70.50;32.30;;;2.40;99.90;;;;;;5010807;28;20087;-58
2021/12/06 00:17:11;;;;;;;69.20;32.80;;;2.40;99.90;;;;;;5008495;28;20058;-55
2021/12/06 00:19:39;;;;;;;75.47;34.72;;;2.40;99.90;;;;;;5007530;28;20225;-59
2021/12/06 00:22:09;;;;;;;70.32;32.10;;;2.40;99.90;;;;;;5008901;28;20030;-55
2021/12/06 00:24:34;;;;;;;70.28;33.05;;;2.40;99.90;;;;;;5009386;28;20030;-57
2021/12/06 00:27:01;;;;;;;70.07;32.92;;;2.40;99.90;;;;;;5007978;28;20025;-58
2021/12/06 00:29:26;;;;;;;69.55;32.03;;;2.40;99.90;;;;;;5010074;28;20034;-59
2021/12/06 00:31:53;;;;;;;74.32;33.05;;;2.40;99.90;;;;;;5010009;28;20068;-55
2021/12/06 00:34:20;;;;;;;65.88;30.83;;;2.40;99.90;;;;;;5009900;28;20392;-57
2021/12/06 00:37:05;;;;;;;66.13;30.55;;;2.40;99.90;;;;;;5009536;28;20029;-55
2021/12/06 00:39:32;;;;;;;68.40;33.05;;;2.40;99.90;;;;;;5007541;28;20049;-57
2021/12/06 00:41:58;;;;;;;66.57;30.33;;;2.40;99.90;;;;;;5003762;28;20440;-59
2021/12/06 00:44:23;;;;;;;67.53;31.80;;;2.40;99.90;;;;;;5010315;28;20113;-55
2021/12/06 00:46:49;;;;;;;65.22;32.00;;;2.40;99.90;;;;;;5008515;28;20395;-56
2021/12/06 00:49:15;;;;;;;63.25;32.28;;;2.40;99.90;;;;;;5009354;28;20509;-56
2021/12/06 00:51:41;;;;;;;65.88;31.85;;;2.40;99.90;;;;;;5009254;28;20041;-57
2021/12/06 00:54:09;;;;;;;65.40;30.75;;;2.40;99.90;;;;;;5009974;28;20025;-57
2021/12/06 00:56:36;;;;;;;69.93;31.73;;;2.40;99.90;;;;;;5002982;28;20108;-54
2021/12/06 00:59:03;;;;;;;66.95;30.73;;;2.40;99.90;;;;;;5009485;28;20014;-56
2021/12/06 01:01:28;;;;;;;65.32;31.75;;;2.40;99.90;;;;;;5005060;28;20038;-57
2021/12/06 01:03:54;;;;;;;64.68;32.13;;;2.50;99.90;;;;;;5009897;28;20365;-55
2021/12/06 01:06:20;;;;;;;65.55;31.83;;;2.40;99.90;;;;;;5005220;28;20345;-59
2021/12/06 01:08:45;;;;;;;67.20;32.40;;;2.40;99.90;;;;;;5009346;28;20030;-56
2021/12/06 01:11:12;;;;;;;72.38;32.13;;;2.40;99.90;;;;;;5005634;28;20125;-58
2021/12/06 01:13:39;;;;;;;65.07;31.05;;;2.40;99.90;;;;;;5009924;28;20108;-56
2021/12/06 01:16:07;;;;;;;72.00;33.33;;;2.40;99.90;;;;;;5005989;28;20041;-57
2021/12/06 01:18:32;;;;;;;71.72;32.45;;;2.40;99.90;;;;;;5009224;28;20106;-54
2021/12/06 01:21:08;;;;;;;68.47;32.75;;;2.40;99.90;;;;;;5008481;28;20454;-56
2021/12/06 01:23:48;;;;;;;69.47;33.55;;;2.40;99.90;;;;;;5009704;28;20018;-57
2021/12/06 01:26:39;;;;;;;75.30;33.03;;;2.40;99.90;;;;;;5006782;28;20033;-53
2021/12/06 01:32:59;;;;;;;65.10;31.95;;;2.50;99.90;;;;;;5007992;28;20095;-57
2021/12/06 01:40:06;;;;;;;63.63;31.77;;;2.40;99.90;;;;;;5010594;28;20037;-56
2021/12/06 01:42:32;;;;;;;68.03;31.67;;;2.40;99.90;;;;;;5012853;28;20514;-57
2021/12/06 01:44:58;;;;;;;69.35;30.75;;;2.40;99.90;;;;;;5012740;28;20034;-58
2021/12/06 01:47:31;;;;;;;65.60;32.35;;;2.50;99.90;;;;;;5013021;28;20029;-56
2021/12/06 01:50:00;;;;;;;70.18;32.58;;;2.40;99.90;;;;;;5012378;28;20037;-56
2021/12/06 01:52:33;;;;;;;70.28;32.55;;;2.40;99.90;;;;;;5011088;28;20022;-55
2021/12/06 01:55:00;;;;;;;72.85;33.10;;;2.40;99.90;;;;;;5012048;28;20382;-57
2021/12/06 01:57:28;;;;;;;78.68;33.75;;;2.30;99.90;;;;;;5011085;28;20088;-58
2021/12/06 01:59:55;;;;;;;70.85;32.47;;;2.30;99.90;;;;;;5011674;28;20026;-57
2021/12/06 02:02:22;;;;;;;70.57;33.08;;;2.30;99.90;;;;;;5019422;28;20503;-57
2021/12/06 02:04:48;;;;;;;68.50;32.92;;;2.20;99.90;;;;;;4993614;28;20567;-59
2021/12/06 02:07:18;;;;;;;72.35;31.33;;;2.10;99.90;;;;;;5007884;28;20105;-60
2021/12/06 02:09:46;;;;;;;76.15;35.35;;;2.00;99.90;;;;;;5010343;28;20175;-56
2021/12/06 02:12:14;;;;;;;74.75;34.22;;;1.90;99.90;;;;;;5007360;28;20111;-56
2021/12/06 02:17:24;;;;;;;;;;;1.90;99.90;;;;;;5007415;28;20030;-55
2021/12/06 02:19:57;;;;;;;76.18;33.25;;;1.80;99.90;;;;;;5025899;28;19992;-56
2021/12/06 02:22:28;;;;;;;77.47;34.75;;;1.80;99.90;;;;;;5008538;28;20025;-58
2021/12/06 02:24:55;;;;;;;79.07;35.08;;;1.80;99.90;;;;;;5011917;28;20022;-56
2021/12/06 02:27:24;;;;;;;74.00;35.13;;;1.80;99.90;;;;;;5006301;28;20018;-57
2021/12/06 02:29:51;;;;;;;78.35;35.88;;;1.80;99.90;;;;;;4992317;28;20034;-57
2021/12/06 02:32:18;;;;;;;85.40;36.70;;;1.80;99.90;;;;;;5010136;28;20030;-55
2021/12/06 02:34:47;;;;;;;82.43;37.65;;;1.70;99.90;;;;;;5011238;28;20026;-54
2021/12/06 02:37:15;;;;;;;81.95;37.80;;;1.80;99.90;;;;;;5010930;28;20475;-57
2021/12/06 02:39:41;;;;;;;88.63;38.97;;;1.80;99.90;;;;;;5012110;28;20178;-54
2021/12/06 02:42:10;;;;;;;88.70;39.47;;;1.80;99.90;;;;;;5024669;28;20176;-56
2021/12/06 02:44:37;;;;;;;80.68;38.33;;;1.70;99.90;;;;;;5027737;28;20510;-56
2021/12/06 02:47:03;;;;;;;82.35;38.13;;;1.80;99.90;;;;;;5009910;28;20024;-56
2021/12/06 02:49:29;;;;;;;76.60;36.55;;;1.80;99.90;;;;;;5010023;28;20403;-54
2021/12/06 02:51:55;;;;;;;85.03;37.53;;;1.80;99.90;;;;;;5009068;28;20034;-56
2021/12/06 02:54:23;;;;;;;84.07;36.97;;;1.80;99.90;;;;;;5011098;28;20102;-53
2021/12/06 02:59:19;;;;;;;80.35;38.08;;;1.70;99.90;;;;;;5011148;28;20400;-56
2021/12/06 03:01:49;;;;;;;84.45;37.80;;;1.70;99.90;;;;;;5017832;28;20034;-57
2021/12/06 03:04:14;;;;;;;78.47;37.03;;;1.60;99.90;;;;;;5012061;28;20535;-56
2021/12/06 03:06:41;;;;;;;85.18;38.25;;;1.60;99.90;;;;;;5010975;28;20117;-57
2021/12/06 03:09:16;;;;;;;84.65;38.05;;;1.60;99.90;;;;;;5011110;28;20022;-57
2021/12/06 03:11:48;;;;;;;83.75;37.83;;;1.50;99.90;;;;;;5009741;28;20169;-58
2021/12/06 03:14:22;;;;;;;88.03;39.15;;;1.50;99.90;;;;;;5011086;28;20046;-57
2021/12/06 03:16:48;;;;;;;89.70;37.70;;;1.50;99.90;;;;;;5010166;28;20117;-57
2021/12/06 03:19:14;;;;;;;86.22;38.33;;;1.40;99.90;;;;;;5010364;28;20026;-57
2021/12/06 03:21:40;;;;;;;88.35;37.60;;;1.40;99.90;;;;;;5010482;28;20030;-55
2021/12/06 03:24:07;;;;;;;83.82;38.08;;;1.40;99.90;;;;;;5008918;28;20060;-57
2021/12/06 03:26:34;;;;;;;89.18;39.67;;;1.40;99.90;;;;;;5009528;28;20101;-56
2021/12/06 03:29:00;;;;;;;87.28;38.80;;;1.40;99.90;;;;;;5009217;28;20033;-59
2021/12/06 03:31:26;;;;;;;82.72;38.17;;;1.40;99.90;;;;;;5003270;28;20034;-57
2021/12/06 03:33:53;;;;;;;79.70;38.20;;;1.50;99.90;;;;;;5010552;28;20442;-56
2021/12/06 03:36:22;;;;;;;83.93;39.22;;;1.50;99.90;;;;;;5009868;28;20546;-58
2021/12/06 03:38:51;;;;;;;82.32;37.75;;;1.40;99.90;;;;;;4991373;28;20031;-57
2021/12/06 03:41:19;;;;;;;81.85;37.25;;;1.40;99.90;;;;;;5006735;28;20438;-58
2021/12/06 03:43:45;;;;;;;91.78;38.65;;;1.40;99.90;;;;;;5011613;28;20456;-57
2021/12/06 03:46:13;;;;;;;79.70;37.28;;;1.40;99.90;;;;;;5020863;28;20034;-55
2021/12/06 03:48:39;;;;;;;79.07;35.55;;;1.40;99.90;;;;;;5010648;28;20120;-54
2021/12/06 03:51:05;;;;;;;84.65;36.97;;;1.40;99.90;;;;;;5006419;28;20459;-57
2021/12/06 03:53:31;;;;;;;79.45;35.97;;;1.30;99.90;;;;;;5010892;28;20034;-59
2021/12/06 03:55:58;;;;;;;91.88;37.67;;;1.30;99.90;;;;;;5007263;28;20025;-58
2021/12/06 03:58:25;;;;;;;81.60;38.17;;;1.40;99.90;;;;;;5010510;28;20535;-56
2021/12/06 04:00:51;;;;;;;79.00;36.10;;;1.50;99.90;;;;;;5009773;28;20073;-55
2021/12/06 04:03:19;;;;;;;78.40;37.10;;;1.40;99.90;;;;;;5010753;28;20037;-58
2021/12/06 04:05:45;;;;;;;83.05;36.05;;;1.50;99.90;;;;;;5006586;28;20036;-54
2021/12/06 04:08:10;;;;;;;71.85;33.88;;;1.50;99.90;;;;;;5010290;28;20026;-54
2021/12/06 04:10:36;;;;;;;79.75;35.45;;;1.60;99.90;;;;;;5010138;28;20505;-55
2021/12/06 04:13:03;;;;;;;87.43;36.35;;;1.60;99.90;;;;;;5010268;28;20030;-57
2021/12/06 04:15:29;;;;;;;73.53;36.05;;;1.60;99.90;;;;;;5008024;28;20026;-57
2021/12/06 04:17:57;;;;;;;74.60;35.03;;;1.70;99.90;;;;;;5009441;28;20034;-61
2021/12/06 04:20:23;;;;;;;77.57;35.20;;;1.70;99.90;;;;;;5007627;28;20296;-57
2021/12/06 04:22:50;;;;;;;76.57;36.70;;;1.70;99.90;;;;;;5010736;28;20055;-53
2021/12/06 04:25:17;;;;;;;80.30;36.95;;;1.70;99.90;;;;;;5009395;28;20026;-58
2021/12/06 04:27:43;;;;;;;82.88;35.47;;;1.70;99.90;;;;;;5008301;28;20038;-58
2021/12/06 04:30:11;;;;;;;76.00;36.28;;;1.70;99.90;;;;;;5005229;28;20042;-59
2021/12/06 04:32:38;;;;;;;79.22;36.33;;;1.70;99.90;;;;;;5003527;28;20460;-53
2021/12/06 04:35:05;;;;;;;82.50;36.90;;;1.70;99.90;;;;;;5007665;28;20197;-58
2021/12/06 04:37:31;;;;;;;70.95;33.47;;;1.70;99.90;;;;;;5003717;28;20026;-57
2021/12/06 04:39:57;;;;;;;79.40;34.83;;;1.60;99.90;;;;;;5024896;28;20076;-59
2021/12/06 04:42:22;;;;;;;67.30;32.78;;;1.60;99.90;;;;;;5004304;28;20554;-56
2021/12/06 04:44:48;;;;;;;78.13;34.33;;;1.60;99.90;;;;;;5025463;28;20100;-56
2021/12/06 04:47:14;;;;;;;71.53;33.92;;;1.60;99.90;;;;;;5005620;28;20041;-58
2021/12/06 04:49:40;;;;;;;70.63;31.42;;;1.60;99.90;;;;;;5008543;28;20474;-59
2021/12/06 04:52:10;;;;;;;67.13;31.48;;;1.60;99.90;;;;;;5007118;28;20206;-58
2021/12/06 04:54:40;;;;;;;67.40;31.92;;;1.60;99.90;;;;;;5008136;28;20026;-58
2021/12/06 04:57:19;;;;;;;69.97;30.90;;;1.60;99.90;;;;;;5007789;28;20037;-57
2021/12/06 04:59:50;;;;;;;67.25;30.17;;;1.60;99.90;;;;;;5008669;28;20073;-56
2021/12/06 05:02:21;;;;;;;62.13;29.23;;;1.60;99.90;;;;;;5008918;28;20030;-56
2021/12/06 05:04:49;;;;;;;62.45;28.17;;;1.60;99.90;;;;;;5010238;28;20018;-59
2021/12/06 05:07:23;;;;;;;62.85;28.95;;;1.70;99.90;;;;;;5005717;28;20510;-56
2021/12/06 05:09:49;;;;;;;57.38;27.33;;;1.70;99.90;;;;;;5001346;28;20025;-56
2021/12/06 05:12:18;;;;;;;62.22;28.77;;;1.70;99.90;;;;;;5009408;28;20034;-57
2021/12/06 05:14:44;;;;;;;60.60;28.48;;;1.80;99.90;;;;;;5013439;28;20022;-56
2021/12/06 05:17:09;;;;;;;58.75;27.67;;;1.90;99.90;;;;;;5012728;28;20022;-58
2021/12/06 05:19:36;;;;;;;54.88;25.40;;;1.90;99.90;;;;;;5012706;28;20164;-58
2021/12/06 05:22:02;;;;;;;57.63;25.55;;;2.00;99.90;;;;;;5013050;28;20108;-57
2021/12/06 05:24:28;;;;;;;48.15;24.90;;;2.00;99.90;;;;;;5013358;28;20018;-56
2021/12/06 05:26:55;;;;;;;44.95;24.05;;;2.00;99.90;;;;;;5013691;28;20026;-58
2021/12/06 05:29:25;;;;;;;52.67;24.13;;;2.00;99.90;;;;;;5011697;28;20025;-57
2021/12/06 05:31:56;;;;;;;46.60;23.00;;;2.00;99.90;;;;;;4993981;28;20480;-55
2021/12/06 05:34:30;;;;;;;48.00;22.38;;;2.00;99.90;;;;;;5012330;28;20037;-57
2021/12/06 05:36:57;;;;;;;50.28;23.45;;;2.00;99.90;;;;;;5012723;28;20391;-57
2021/12/06 05:39:23;;;;;;;47.55;22.55;;;2.00;99.90;;;;;;5004534;28;20034;-58
2021/12/06 05:41:49;;;;;;;46.67;22.45;;;2.00;99.90;;;;;;5012787;28;20053;-55
2021/12/06 05:44:14;;;;;;;46.00;22.48;;;2.00;99.90;;;;;;5009054;28;20798;-55
2021/12/06 05:46:40;;;;;;;45.70;23.42;;;2.00;99.90;;;;;;5002184;28;20022;-54
2021/12/06 05:49:06;;;;;;;47.40;23.58;;;2.00;99.90;;;;;;5009700;28;20096;-58
2021/12/06 05:51:31;;;;;;;46.13;22.50;;;2.10;99.90;;;;;;5006316;28;20030;-58
2021/12/06 05:53:57;;;;;;;45.47;21.08;;;2.10;99.90;;;;;;5009606;28;20450;-58
2021/12/06 05:56:23;;;;;;;47.75;22.60;;;2.10;99.90;;;;;;4999302;28;20027;-58
2021/12/06 05:58:49;;;;;;;45.72;22.92;;;2.10;99.90;;;;;;5003697;28;20025;-57
2021/12/06 06:01:15;;;;;;;43.55;22.38;;;2.10;99.90;;;;;;5005992;28;20041;-56
2021/12/06 06:03:43;;;;;;;45.25;23.55;;;2.10;99.90;;;;;;5007489;28;20132;-55
2021/12/06 06:06:09;;;;;;;42.05;23.27;;;2.00;99.90;;;;;;5007884;28;20072;-56
2021/12/06 06:08:34;;;;;;;43.80;22.75;;;2.00;99.90;;;;;;5003752;28;20057;-49
2021/12/06 06:11:00;;;;;;;46.88;22.70;;;2.00;99.90;;;;;;5004075;28;20038;-59
2021/12/06 06:13:26;;;;;;;40.95;21.00;;;2.00;99.90;;;;;;5010201;28;20037;-55
2021/12/06 06:15:51;;;;;;;44.88;22.52;;;2.10;99.90;;;;;;5000180;28;20037;-55
2021/12/06 06:18:19;;;;;;;45.75;23.30;;;2.10;99.90;;;;;;5010554;28;20042;-56
2021/12/06 06:20:54;;;;;;;45.65;23.00;;;2.10;99.90;;;;;;4995880;28;20030;-57
2021/12/06 06:23:21;;;;;;;49.20;23.35;;;2.00;99.90;;;;;;5005640;28;20487;-55
2021/12/06 06:25:47;;;;;;;47.05;22.35;;;2.00;99.90;;;;;;5004264;28;20066;-55
2021/12/06 06:28:13;;;;;;;43.70;22.77;;;2.00;99.90;;;;;;5010475;28;20058;-58
2021/12/06 06:30:38;;;;;;;44.30;22.73;;;2.00;99.90;;;;;;5004482;28;20030;-54
2021/12/06 06:33:05;;;;;;;47.35;23.08;;;2.00;99.90;;;;;;5010327;28;20038;-56
2021/12/06 06:35:31;;;;;;;45.03;22.35;;;2.00;99.90;;;;;;5023883;28;20030;-55
2021/12/06 06:37:57;;;;;;;47.40;23.65;;;2.00;99.90;;;;;;5026405;28;20052;-54
2021/12/06 06:40:23;;;;;;;49.08;22.45;;;1.90;99.90;;;;;;5006700;28;20411;-56
2021/12/06 06:42:49;;;;;;;47.22;22.17;;;1.90;99.90;;;;;;5009583;28;20029;-56
2021/12/06 06:45:18;;;;;;;40.85;21.05;;;2.00;99.90;;;;;;5008214;28;20472;-57
2021/12/06 06:47:45;;;;;;;43.65;20.83;;;2.00;99.90;;;;;;5010473;28;20061;-56
2021/12/06 06:50:11;;;;;;;50.65;21.75;;;2.00;99.90;;;;;;5010853;28;20550;-56
2021/12/06 06:52:36;;;;;;;43.20;20.60;;;1.90;99.90;;;;;;5020171;28;20125;-57
2021/12/06 06:55:04;;;;;;;40.90;20.70;;;1.90;99.90;;;;;;5011407;28;20029;-57
2021/12/06 06:57:30;;;;;;;37.95;19.48;;;1.90;99.90;;;;;;5007678;28;20484;-55
2021/12/06 06:59:55;;;;;;;42.92;20.00;;;1.90;99.90;;;;;;5010854;28;20030;-54
2021/12/06 07:02:21;;;;;;;38.65;20.50;;;1.90;99.90;;;;;;5007797;28;20053;-55
2021/12/06 07:04:48;;;;;;;40.55;20.52;;;1.90;99.90;;;;;;5018745;28;20033;-57
2021/12/06 07:07:13;;;;;;;43.72;21.27;;;1.80;99.90;;;;;;5009240;28;20501;-58
2021/12/06 07:09:42;;;;;;;45.42;21.95;;;1.80;99.90;;;;;;5009680;28;20038;-57
2021/12/06 07:12:13;;;;;;;43.00;20.63;;;1.80;99.90;;;;;;5010519;28;20034;-54
2021/12/06 07:14:39;;;;;;;40.60;20.48;;;1.90;99.90;;;;;;5007682;28;20523;-57
2021/12/06 07:17:05;;;;;;;40.38;20.63;;;1.90;99.90;;;;;;5001504;28;20031;-58
2021/12/06 07:19:31;;;;;;;51.63;21.20;;;1.90;99.90;;;;;;5008457;28;20453;-59
2021/12/06 07:21:58;;;;;;;49.25;22.33;;;2.00;99.90;;;;;;5008036;28;20121;-58
2021/12/06 07:24:24;;;;;;;39.83;19.42;;;2.20;99.90;;;;;;5002834;28;20036;-60
2021/12/06 07:26:50;;;;;;;36.58;18.90;;;2.30;99.90;;;;;;5005774;28;20054;-57
2021/12/06 07:29:16;;;;;;;41.50;19.27;;;2.20;99.90;;;;;;5009234;28;20570;-59
2021/12/06 07:31:42;;;;;;;36.58;19.30;;;2.10;99.90;;;;;;5004064;28;20061;-58
2021/12/06 07:34:07;;;;;;;41.90;19.73;;;2.10;99.90;;;;;;5004406;28;20445;-57
2021/12/06 07:36:33;;;;;;;42.10;19.70;;;2.00;99.90;;;;;;5025076;28;20469;-57
2021/12/06 07:38:59;;;;;;;39.40;19.05;;;1.90;99.90;;;;;;5010015;28;20478;-57
2021/12/06 07:41:28;;;;;;;37.67;19.35;;;1.90;99.90;;;;;;5009243;28;20499;-56
2021/12/06 07:43:55;;;;;;;40.22;17.98;;;1.90;99.90;;;;;;5010323;28;20040;-58
2021/12/06 07:46:21;;;;;;;34.83;19.00;;;1.90;99.90;;;;;;5010686;28;20072;-57
2021/12/06 07:48:52;;;;;;;39.90;18.60;;;1.90;99.90;;;;;;5010347;28;20065;-57
2021/12/06 07:51:21;;;;;;;41.13;19.35;;;1.90;99.90;;;;;;5010487;28;20037;-53
2021/12/06 07:53:48;;;;;;;39.35;19.23;;;1.90;99.90;;;;;;5011094;28;20030;-58
2021/12/06 07:56:14;;;;;;;36.13;17.77;;;1.90;99.90;;;;;;5010786;28;20056;-59
2021/12/06 07:58:39;;;;;;;35.00;17.33;;;2.00;99.90;;;;;;5010577;28;20061;-57
2021/12/06 08:01:06;;;;;;;38.35;18.75;;;1.90;99.90;;;;;;5010604;28;20402;-57
2021/12/06 08:03:32;;;;;;;37.83;19.25;;;2.00;99.90;;;;;;5011245;28;20022;-57
2021/12/06 08:05:58;;;;;;;40.42;19.63;;;2.00;99.90;;;;;;5009369;28;20041;-59
2021/12/06 08:08:30;;;;;;;32.65;17.58;;;2.00;99.90;;;;;;5008792;28;20022;-57
2021/12/06 08:11:02;;;;;;;36.55;18.17;;;2.00;99.90;;;;;;5010622;28;20036;-56
2021/12/06 08:13:29;;;;;;;;;;;2.00;99.90;;;;;;5011336;28;20057;-58
2021/12/06 08:15:58;;;;;;;35.85;17.85;;;2.00;99.90;;;;;;5010386;28;19913;-58
2021/12/06 08:18:24;;;;;;;34.60;16.77;;;2.00;99.90;;;;;;5009631;28;20141;-57
2021/12/06 08:20:50;;;;;;;36.85;17.88;;;2.00;99.90;;;;;;5010390;28;20145;-55
2021/12/06 08:23:17;;;;;;;36.85;18.98;;;1.90;99.90;;;;;;5010104;28;20037;-57
2021/12/06 08:25:46;;;;;;;37.67;18.50;;;1.90;99.90;;;;;;5010507;28;20080;-58
2021/12/06 08:28:12;;;;;;;35.30;17.98;;;1.90;99.90;;;;;;5008362;28;20364;-57
2021/12/06 08:30:38;;;;;;;33.92;17.60;;;1.90;99.90;;;;;;5010370;28;20022;-58
2021/12/06 08:33:06;;;;;;;38.42;18.58;;;1.90;99.90;;;;;;5009994;28;20022;-53
2021/12/06 08:35:37;;;;;;;34.60;17.92;;;1.90;99.90;;;;;;5010195;28;20065;-56
2021/12/06 08:38:04;;;;;;;36.70;18.30;;;1.90;99.90;;;;;;5024476;28;20026;-57
2021/12/06 08:40:31;;;;;;;38.17;19.65;;;1.90;99.90;;;;;;5010245;28;20407;-56
2021/12/06 08:42:56;;;;;;;33.38;18.40;;;1.90;99.90;;;;;;5010373;28;20387;-57
2021/12/06 08:45:23;;;;;;;37.80;18.98;;;2.00;99.90;;;;;;5009843;28;20038;-55
2021/12/06 08:47:49;;;;;;;33.42;18.60;;;2.00;99.90;;;;;;5010003;28;20034;-54
2021/12/06 08:50:18;;;;;;;37.92;19.30;;;2.00;99.90;;;;;;5009355;28;20060;-57
2021/12/06 08:52:44;;;;;;;39.30;19.95;;;2.00;99.90;;;;;;5009166;28;20026;-58
2021/12/06 08:55:11;;;;;;;35.97;18.60;;;2.10;99.90;;;;;;5009859;28;20030;-57
2021/12/06 08:57:38;;;;;;;38.20;18.92;;;2.00;99.90;;;;;;5010211;28;20022;-58
2021/12/06 09:00:18;;;;;;;38.13;19.15;;;2.10;99.90;;;;;;5009547;28;20376;-59
2021/12/06 09:02:44;;;;;;;37.05;18.13;;;2.10;99.90;;;;;;5009867;28;20026;-58
2021/12/06 09:05:11;;;;;;;35.72;18.67;;;2.10;99.90;;;;;;5009606;28;20030;-57
2021/12/06 09:07:37;;;;;;;40.30;20.40;;;2.10;99.90;;;;;;5010128;28;20611;-57
2021/12/06 09:10:06;;;;;;;35.95;18.83;;;2.20;99.90;;;;;;5009159;28;20109;-56
2021/12/06 09:12:32;;;;;;;39.00;18.40;;;2.20;99.90;;;;;;5010274;28;20026;-58
2021/12/06 09:15:03;;;;;;;40.58;20.63;;;2.20;99.90;;;;;;5010096;28;20052;-58
2021/12/06 09:17:29;;;;;;;37.53;20.45;;;2.30;99.90;;;;;;5009893;28;20105;-57
2021/12/06 09:19:55;;;;;;;37.72;19.95;;;2.40;99.90;;;;;;5009522;28;20053;-55
2021/12/06 09:22:21;;;;;;;38.80;19.10;;;2.40;99.90;;;;;;5009464;28;20044;-58
2021/12/06 09:24:49;;;;;;;37.55;18.33;;;2.30;99.90;;;;;;5009740;28;20072;-58
2021/12/06 09:27:15;;;;;;;36.90;18.85;;;2.30;99.90;;;;;;5009457;28;20144;-58
2021/12/06 09:29:41;;;;;;;41.38;19.38;;;2.20;99.90;;;;;;5009264;28;20034;-58
2021/12/06 09:32:09;;;;;;;40.97;18.58;;;2.20;99.90;;;;;;5009148;28;20038;-59
2021/12/06 09:34:39;;;;;;;48.13;19.88;;;2.20;99.90;;;;;;5008867;28;20491;-58
2021/12/06 09:37:05;;;;;;;46.75;21.38;;;2.20;99.90;;;;;;5009253;28;20084;-54
2021/12/06 09:39:32;;;;;;;42.58;21.52;;;2.20;99.90;;;;;;5009540;28;20081;-57
2021/12/06 09:41:58;;;;;;;46.95;20.38;;;2.20;99.90;;;;;;5009824;28;20032;-55
2021/12/06 09:44:24;;;;;;;45.63;21.27;;;2.30;99.90;;;;;;5009149;28;20044;-57
2021/12/06 09:46:50;;;;;;;48.33;22.65;;;2.40;99.90;;;;;;5009543;28;20406;-58
2021/12/06 09:49:19;;;;;;;48.60;24.15;;;2.50;99.90;;;;;;5008624;28;20032;-59
2021/12/06 09:51:51;;;;;;;46.03;22.02;;;2.50;99.90;;;;;;5009540;28;20029;-58
2021/12/06 09:54:19;;;;;;;46.58;23.27;;;2.50;99.90;;;;;;5009179;28;20080;-59
2021/12/06 09:56:46;;;;;;;50.63;24.00;;;2.50;99.90;;;;;;5009351;28;20034;-58
2021/12/06 09:59:15;;;;;;;57.75;25.13;;;2.50;99.90;;;;;;5011624;28;20157;-54
2021/12/06 10:01:51;;;;;;;49.97;23.92;;;2.40;99.90;;;;;;5012705;28;20041;-57
2021/12/06 10:04:20;;;;;;;57.45;25.40;;;2.40;99.90;;;;;;5012749;28;20086;-56
2021/12/06 10:06:46;;;;;;;50.03;24.67;;;2.20;99.90;;;;;;5013002;28;20566;-56
2021/12/06 10:09:14;;;;;;;56.05;25.50;;;2.20;99.90;;;;;;5012130;28;20034;-57
2021/12/06 10:11:40;;;;;;;53.92;25.05;;;2.20;99.90;;;;;;5012755;28;20037;-57
2021/12/06 10:14:07;;;;;;;58.05;25.98;;;2.20;99.90;;;;;;5012770;28;20041;-57
2021/12/06 10:16:33;;;;;;;55.15;26.00;;;2.20;99.90;;;;;;5012811;28;20068;-56
2021/12/06 10:18:59;;;;;;;59.45;26.90;;;2.30;99.90;;;;;;5012669;28;20426;-60
2021/12/06 10:21:27;;;;;;;58.45;27.90;;;2.30;99.90;;;;;;5013084;28;20045;-57
2021/12/06 10:23:55;;;;;;;60.30;29.80;;;2.30;99.90;;;;;;5013108;28;20379;-63
2021/12/06 10:26:25;;;;;;;62.25;29.33;;;2.20;99.90;;;;;;5012375;28;20528;-58
2021/12/06 10:29:00;;;;;;;55.50;27.90;;;2.20;99.90;;;;;;5011082;28;20034;-59
2021/12/06 10:31:29;;;;;;;63.35;30.75;;;2.10;99.90;;;;;;5011309;28;20105;-58
2021/12/06 10:33:55;;;;;;;64.43;30.92;;;2.00;99.90;;;;;;5012658;28;20053;-59
2021/12/06 10:36:25;;;;;;;68.72;31.40;;;1.90;99.90;;;;;;5011778;28;20034;-59
2021/12/06 10:38:53;;;;;;;70.75;32.22;;;1.80;99.90;;;;;;5012039;28;20050;-59
2021/12/06 10:41:22;;;;;;;68.28;31.02;;;1.80;99.90;;;;;;5011908;28;20120;-58
2021/12/06 10:44:00;;;;;;;62.17;29.88;;;1.80;99.90;;;;;;5012279;28;20058;-58
2021/12/06 10:46:27;;;;;;;70.72;31.77;;;1.80;99.90;;;;;;5012292;28;20042;-58
2021/12/06 10:48:58;;;;;;;64.00;31.73;;;1.80;99.90;;;;;;5011603;28;20175;-58
2021/12/06 10:51:25;;;;;;;68.57;32.00;;;1.90;99.90;;;;;;5012149;28;20514;-59
2021/12/06 10:54:02;;;;;;;66.60;31.67;;;1.90;99.90;;;;;;5012304;28;20053;-58
2021/12/06 10:56:46;;;;;;;68.53;32.53;;;1.90;99.90;;;;;;5012140;28;20038;-58
2021/12/06 10:59:19;;;;;;;69.82;32.03;;;2.00;99.90;;;;;;5010301;28;20033;-58
2021/12/06 11:01:47;;;;;;;69.22;32.28;;;2.00;99.90;;;;;;5010893;28;20034;-58
2021/12/06 11:04:16;;;;;;;67.15;31.30;;;2.00;99.90;;;;;;5011705;28;20395;-55
2021/12/06 11:06:50;;;;;;;69.75;29.27;;;2.00;99.90;;;;;;5011939;28;20402;-59
2021/12/06 11:09:26;;;;;;;67.70;30.55;;;2.00;99.90;;;;;;5009781;28;20503;-59
2021/12/06 11:11:59;;;;;;;69.80;31.25;;;1.80;99.90;;;;;;5011623;28;20439;-60
2021/12/06 11:14:37;;;;;;;69.00;32.53;;;1.80;99.90;;;;;;5010598;28;20022;-59
2021/12/06 11:17:06;;;;;;;73.45;33.88;;;1.90;99.90;;;;;;5011348;28;20022;-59
2021/12/06 11:19:32;;;;;;;69.82;31.60;;;1.90;99.90;;;;;;5011345;28;20437;-58
2021/12/06 11:22:09;;;;;;;70.45;33.15;;;1.90;99.90;;;;;;5011658;28;20117;-59
2021/12/06 11:24:39;;;;;;;71.30;33.30;;;1.90;99.90;;;;;;5011557;28;20042;-58
2021/12/06 11:27:08;;;;;;;82.93;35.42;;;1.90;99.90;;;;;;5010883;28;20041;-56
2021/12/06 11:29:41;;;;;;;72.07;35.20;;;1.90;99.90;;;;;;5010907;28;20049;-59
2021/12/06 11:32:15;;;;;;;75.97;35.95;;;2.00;99.90;;;;;;5010964;28;20037;-58
2021/12/06 11:34:44;;;;;;;71.60;33.58;;;2.00;99.90;;;;;;5011368;28;20104;-58
2021/12/06 11:37:19;;;;;;;76.30;34.10;;;2.00;99.90;;;;;;5010926;28;20398;-59
2021/12/06 11:39:48;;;;;;;77.28;36.20;;;1.90;99.90;;;;;;5010987;28;20026;-59
2021/12/06 11:42:15;;;;;;;71.10;34.55;;;2.00;99.90;;;;;;5010897;28;20034;-58
2021/12/06 11:44:42;;;;;;;79.10;36.17;;;2.00;99.90;;;;;;5011215;28;20032;-56
2021/12/06 11:47:12;;;;;;;73.18;33.83;;;2.00;99.90;;;;;;5010703;28;20037;-58
2021/12/06 11:49:42;;;;;;;76.70;35.58;;;1.90;99.90;;;;;;5010530;28;20110;-59
2021/12/06 11:52:12;;;;;;;84.80;37.10;;;1.90;99.90;;;;;;5010872;28;20442;-55
2021/12/06 11:54:53;;;;;;;72.85;35.05;;;1.90;99.90;;;;;;5011393;28;20108;-57
2021/12/06 11:57:29;;;;;;;79.57;36.80;;;1.90;99.90;;;;;;5010929;28;20383;-58
2021/12/06 12:00:06;;;;;;;84.53;37.63;;;1.80;99.90;;;;;;5009528;28;20491;-58
2021/12/06 12:02:37;;;;;;;75.28;33.83;;;1.90;99.90;;;;;;5011092;28;20553;-58
2021/12/06 12:05:33;;;;;;;83.80;35.88;;;1.90;99.90;;;;;;5010387;28;20101;-58
2021/12/06 12:08:05;;;;;;;88.18;37.90;;;1.80;99.90;;;;;;4998232;28;20057;-58
2021/12/06 12:10:34;;;;;;;76.75;35.80;;;1.90;99.90;;;;;;5010986;28;20498;-59
2021/12/06 12:13:00;;;;;;;80.05;35.42;;;1.90;99.90;;;;;;5009131;28;20037;-61
2021/12/06 12:15:26;;;;;;;72.80;31.45;;;1.90;99.90;;;;;;5010912;28;20395;-58
2021/12/06 12:17:53;;;;;;;80.80;36.20;;;1.90;99.90;;;;;;5010171;28;20668;-58
2021/12/06 12:20:23;;;;;;;73.57;33.60;;;1.90;99.90;;;;;;5009755;28;20486;-57
2021/12/06 12:22:55;;;;;;;69.13;32.45;;;1.90;99.90;;;;;;5010608;28;20053;-59
2021/12/06 12:25:26;;;;;;;79.78;35.63;;;1.90;99.90;;;;;;5010496;28;20033;-56
2021/12/06 12:28:36;;;;;;;80.13;35.30;;;1.90;99.90;;;;;;5010149;28;20030;-58
2021/12/06 12:30:41;;;;;;;80.55;34.08;;;1.80;99.90;;;;;;5004061;28;20567;-56
2021/12/06 12:33:08;;;;;;;73.25;33.75;;;1.90;99.90;;;;;;5009949;28;20023;-58
2021/12/06 12:35:38;;;;;;;75.57;33.88;;;1.90;99.90;;;;;;5010300;28;20465;-56
2021/12/06 12:38:04;;;;;;;70.20;31.70;;;1.90;99.90;;;;;;5009049;28;20034;-59
2021/12/06 12:40:43;;;;;;;70.45;33.10;;;1.80;99.90;;;;;;5010335;28;20044;-58
2021/12/06 12:43:18;;;;;;;70.78;33.05;;;1.90;99.90;;;;;;5009730;28;20033;-57
2021/12/06 12:45:49;;;;;;;79.97;34.25;;;1.90;99.90;;;;;;5009985;28;20038;-59
2021/12/06 12:48:20;;;;;;;77.80;36.13;;;1.80;99.90;;;;;;5009279;28;20033;-58
2021/12/06 12:51:04;;;;;;;83.65;36.65;;;1.80;99.90;;;;;;5010155;28;20030;-57
2021/12/06 12:53:59;;;;;;;80.03;34.67;;;1.90;99.90;;;;;;5010139;28;20026;-57
2021/12/06 12:56:38;;;;;;;79.57;34.33;;;1.90;99.90;;;;;;5010014;28;20014;-57
2021/12/06 12:59:35;;;;;;;78.30;35.40;;;1.90;99.90;;;;;;5009156;28;20033;-57